Time;durP1;ratioP1;P1;durP2;ratioP2;P2;SDS_P1;SDS_P2;PMS_P1;PMS_P2;Temp;Humidity;BMP_temperature;BMP_pressure;BME280_temperature;BME280_humidity;BME280_pressure;Samples;Min_cycle;Max_cycle;Signal;HPM_P1;HPM_P2
2023/09/12 00:00:48;;;;;;;8.00;4.90;;;;;;;27.05;39.53;99471.75;4483986;32;34175;-69
2023/09/12 00:03:20;;;;;;;11.18;5.18;;;;;;;27.05;39.57;99470.94;4484268;32;34594;-69
2023/09/12 00:05:56;;;;;;;11.63;5.25;;;;;;;27.05;39.63;99466.28;4484341;32;33773;-69
2023/09/12 00:08:24;;;;;;;9.82;4.87;;;;;;;27.05;39.65;99474.50;4483058;32;33886;-69
2023/09/12 00:11:10;;;;;;;10.32;5.05;;;;;;;27.04;39.63;99474.72;4484300;32;34666;-68
2023/09/12 00:13:39;;;;;;;8.60;4.22;;;;;;;27.05;39.57;99479.97;4484319;32;34210;-68
2023/09/12 00:16:06;;;;;;;11.23;5.72;;;;;;;27.03;39.56;99479.38;4484187;32;34666;-69
2023/09/12 00:18:34;;;;;;;10.32;5.25;;;;;;;27.01;39.42;99476.09;4484152;32;34965;-68
2023/09/12 00:21:02;;;;;;;9.23;5.15;;;;;;;27.01;39.50;99469.78;4484235;32;35599;-69
2023/09/12 00:23:30;;;;;;;8.70;4.55;;;;;;;27.01;39.47;99464.31;4484209;32;33614;-67
2023/09/12 00:25:58;;;;;;;9.55;5.12;;;;;;;26.99;39.61;99470.03;4472480;32;33883;-68
2023/09/12 00:28:26;;;;;;;9.98;5.28;;;;;;;26.99;39.63;99470.03;4467272;32;34756;-67
2023/09/12 00:30:53;;;;;;;7.93;4.30;;;;;;;26.99;39.66;99464.53;4468745;32;34038;-68
2023/09/12 00:33:21;;;;;;;10.07;5.28;;;;;;;27.00;39.66;99468.09;4468321;32;34180;-68
2023/09/12 00:35:49;;;;;;;8.18;4.82;;;;;;;26.99;39.58;99470.03;4468415;32;34729;-68
2023/09/12 00:38:16;;;;;;;8.35;4.85;;;;;;;26.99;39.56;99472.75;4468599;32;34002;-67
2023/09/12 00:40:43;;;;;;;8.63;4.70;;;;;;;26.98;39.50;99462.91;4468315;32;34461;-68
2023/09/12 00:43:11;;;;;;;10.77;4.78;;;;;;;26.99;39.49;99464.53;4468511;32;33405;-67
2023/09/12 00:45:39;;;;;;;9.88;5.37;;;;;;;26.98;39.46;99475.75;4468269;32;34706;-68
2023/09/12 00:48:07;;;;;;;10.02;4.90;;;;;;;26.98;39.41;99468.37;4467561;32;33673;-67
2023/09/12 00:50:35;;;;;;;9.20;5.00;;;;;;;26.96;39.39;99476.84;4467147;32;34025;-67
2023/09/12 00:53:03;;;;;;;9.82;5.55;;;;;;;26.96;39.39;99465.09;4468208;32;33734;-68
2023/09/12 00:55:31;;;;;;;10.63;5.25;;;;;;;26.98;39.39;99476.59;4468137;32;34629;-68
2023/09/12 00:57:59;;;;;;;8.93;4.50;;;;;;;26.99;39.36;99472.75;4466909;32;34535;-67
2023/09/12 01:00:27;;;;;;;8.57;5.05;;;;;;;27.01;39.29;99469.78;4468237;32;34447;-68
2023/09/12 01:02:56;;;;;;;8.50;4.50;;;;;;;27.00;39.25;99474.44;4467939;32;32972;-69
2023/09/12 01:05:25;;;;;;;12.48;4.82;;;;;;;26.98;39.27;99468.37;4454104;32;33612;-67
2023/09/12 01:07:52;;;;;;;9.43;5.18;;;;;;;26.95;39.24;99466.16;4466886;32;34518;-69
2023/09/12 01:10:20;;;;;;;8.38;4.75;;;;;;;26.95;39.29;99464.25;4467042;32;33403;-69
2023/09/12 01:12:47;;;;;;;9.07;4.65;;;;;;;26.96;39.23;99473.31;4466883;32;34080;-69
2023/09/12 01:15:16;;;;;;;11.05;4.80;;;;;;;26.94;39.31;99464.50;4468001;32;34688;-70
2023/09/12 01:17:45;;;;;;;8.73;4.75;;;;;;;26.94;39.31;99467.25;4467731;32;34677;-69
2023/09/12 01:20:30;;;;;;;8.63;4.70;;;;;;;26.93;39.27;99468.31;4468043;32;34073;-68
2023/09/12 01:23:00;;;;;;;9.57;5.70;;;;;;;26.95;39.24;99466.16;4466598;32;33972;-68
2023/09/12 01:25:55;;;;;;;9.85;5.12;;;;;;;26.92;39.31;99463.94;4473478;32;34080;-68
2023/09/12 01:28:24;;;;;;;9.85;4.40;;;;;;;26.94;39.35;99461.75;4483876;32;33794;-69
2023/09/12 01:30:51;;;;;;;12.75;5.10;;;;;;;26.90;39.38;99466.91;4483579;32;34642;-69
2023/09/12 01:33:20;;;;;;;10.85;5.57;;;;;;;26.91;39.41;99465.03;4483369;32;33499;-69
2023/09/12 01:35:47;;;;;;;7.18;4.70;;;;;;;26.90;39.45;99460.63;4469477;32;33586;-69
2023/09/12 01:38:15;;;;;;;9.23;4.75;;;;;;;26.90;39.42;99457.88;4483701;32;33921;-69
2023/09/12 01:40:49;;;;;;;8.00;4.75;;;;;;;26.90;39.42;99463.34;4483188;32;33980;-69
2023/09/12 01:43:18;;;;;;;10.63;4.90;;;;;;;26.90;39.44;99460.63;4482160;32;33289;-68
2023/09/12 01:45:46;;;;;;;10.25;5.00;;;;;;;26.89;39.36;99461.72;4483556;32;33873;-68
2023/09/12 01:48:13;;;;;;;8.27;5.20;;;;;;;26.89;39.30;99458.97;4482014;32;33814;-69
2023/09/12 01:50:42;;;;;;;9.13;4.90;;;;;;;26.88;39.21;99460.87;4483258;32;33783;-69
2023/09/12 01:53:10;;;;;;;7.30;4.57;;;;;;;26.88;39.26;99471.84;4468989;32;33289;-68
2023/09/12 01:55:37;;;;;;;8.75;5.35;;;;;;;26.87;39.23;99469.38;4481684;32;34713;-69
2023/09/12 01:58:05;;;;;;;8.57;5.35;;;;;;;26.88;39.16;99471.00;4483272;32;33684;-68
2023/09/12 02:00:33;;;;;;;10.98;6.30;;;;;;;26.87;39.13;99469.38;4485334;32;33436;-69
2023/09/12 02:03:01;;;;;;;9.35;4.95;;;;;;;26.88;39.09;99473.75;4483787;32;34243;-69
2023/09/12 02:05:29;;;;;;;10.30;5.60;;;;;;;26.86;39.14;99479.50;4483797;32;34901;-69
2023/09/12 02:07:56;;;;;;;11.27;5.37;;;;;;;26.87;39.00;99466.63;4483753;32;34001;-69
2023/09/12 02:10:24;;;;;;;7.85;4.40;;;;;;;26.84;39.04;99470.69;4484846;32;34716;-70
2023/09/12 02:12:52;;;;;;;8.38;4.50;;;;;;;26.85;39.10;99474.25;4485243;32;32941;-69
2023/09/12 02:15:19;;;;;;;12.68;5.70;;;;;;;26.85;39.13;99475.06;4485103;32;33686;-70
2023/09/12 02:17:50;;;;;;;11.63;5.10;;;;;;;26.84;39.13;99481.66;4484635;32;33983;-68
2023/09/12 02:20:19;;;;;;;13.73;5.37;;;;;;;26.83;39.06;99477.25;4485085;32;33993;-69
2023/09/12 02:22:47;;;;;;;8.65;4.90;;;;;;;26.82;39.03;99478.34;4484863;32;34406;-70
2023/09/12 02:25:14;;;;;;;7.32;4.50;;;;;;;26.83;39.06;99476.44;4478111;32;33613;-69
2023/09/12 02:27:42;;;;;;;10.77;5.28;;;;;;;26.82;39.13;99483.81;4469337;32;33758;-69
2023/09/12 02:30:10;;;;;;;8.75;5.30;;;;;;;26.82;39.14;99483.81;4469070;32;34545;-69
2023/09/12 02:32:37;;;;;;;9.27;5.55;;;;;;;26.82;39.10;99472.06;4469306;32;33782;-69
2023/09/12 02:35:05;;;;;;;12.63;5.45;;;;;;;26.81;39.05;99475.84;4469309;32;33898;-67
2023/09/12 02:37:33;;;;;;;12.60;5.85;;;;;;;26.80;39.19;99477.75;4469044;32;34775;-69
2023/09/12 02:40:00;;;;;;;10.27;5.30;;;;;;;26.80;39.15;99475.03;4469073;32;34551;-69
2023/09/12 02:42:28;;;;;;;9.25;5.45;;;;;;;26.79;39.11;99469.81;4469211;32;33421;-69
2023/09/12 02:44:55;;;;;;;12.90;5.18;;;;;;;26.79;39.12;99473.38;4469060;32;33885;-68
2023/09/12 02:47:23;;;;;;;10.23;5.57;;;;;;;26.79;39.16;99475.28;4471958;32;34257;-68
2023/09/12 02:49:51;;;;;;;10.68;5.55;;;;;;;26.79;39.05;99475.28;4484818;32;34527;-68
2023/09/12 02:52:18;;;;;;;14.02;5.28;;;;;;;26.78;39.03;99479.12;4484671;32;34406;-69
2023/09/12 02:54:46;;;;;;;9.07;5.18;;;;;;;26.77;39.04;99481.03;4484963;32;33343;-69
2023/09/12 02:57:14;;;;;;;10.25;5.30;;;;;;;26.77;39.16;99472.00;4484654;32;34045;-68
2023/09/12 02:59:41;;;;;;;10.57;5.90;;;;;;;26.75;39.13;99477.72;4484942;32;33894;-69
2023/09/12 03:02:09;;;;;;;14.10;5.78;;;;;;;26.75;39.08;99469.50;4484779;32;33556;-68
2023/09/12 03:04:37;;;;;;;12.37;5.10;;;;;;;26.76;39.04;99464.84;4485168;32;34603;-69
2023/09/12 03:07:04;;;;;;;8.35;5.05;;;;;;;26.74;39.04;99470.59;4484793;32;33714;-69
2023/09/12 03:09:32;;;;;;;7.72;4.72;;;;;;;26.75;39.02;99468.69;4484571;32;34593;-69
2023/09/12 03:12:04;;;;;;;8.80;5.72;;;;;;;26.74;39.02;99470.59;4484731;32;34008;-69
2023/09/12 03:14:32;;;;;;;11.40;6.07;;;;;;;26.74;39.03;99473.31;4483667;32;34622;-68
2023/09/12 03:17:00;;;;;;;11.27;5.53;;;;;;;26.74;38.98;99470.59;4484679;32;34707;-68
2023/09/12 03:19:29;;;;;;;12.52;5.60;;;;;;;26.73;38.95;99473.59;4484759;32;34133;-68
2023/09/12 03:21:58;;;;;;;10.40;5.72;;;;;;;26.71;38.99;99474.66;4484449;32;33788;-69
2023/09/12 03:24:28;;;;;;;11.12;5.65;;;;;;;26.72;38.85;99475.50;4484524;32;33842;-69
2023/09/12 03:26:56;;;;;;;13.38;5.65;;;;;;;26.71;38.88;99485.59;4484833;32;33934;-69
2023/09/12 03:29:24;;;;;;;12.90;6.18;;;;;;;26.70;38.73;99478.47;4484491;32;34635;-69
2023/09/12 03:31:52;;;;;;;11.55;5.62;;;;;;;26.68;38.87;99479.84;4483582;32;34074;-68
2023/09/12 03:34:22;;;;;;;;;;;;;;;26.68;38.79;99479.84;4484975;32;34821;-69
2023/09/12 03:36:49;;;;;;;10.57;5.70;;;;;;;26.77;38.80;99482.94;4484667;32;33904;-69
2023/09/12 03:39:17;;;;;;;8.88;5.03;;;;;;;26.68;38.92;99486.12;4483060;32;34663;-69
2023/09/12 03:41:45;;;;;;;8.73;5.45;;;;;;;26.65;39.02;99486.62;4482520;32;32983;-68
2023/09/12 03:44:13;;;;;;;12.77;6.22;;;;;;;26.65;39.05;99483.91;4482727;32;33379;-68
2023/09/12 03:46:40;;;;;;;10.82;6.12;;;;;;;26.64;39.12;99484.97;4482544;32;33805;-68
2023/09/12 03:49:08;;;;;;;10.18;5.43;;;;;;;26.65;39.00;99485.81;4480941;32;32536;-68
2023/09/12 03:51:37;;;;;;;9.95;5.07;;;;;;;26.64;39.08;99490.47;4482544;32;34452;-68
2023/09/12 03:54:05;;;;;;;9.48;4.57;;;;;;;26.64;39.01;99487.72;4483190;32;34563;-69
2023/09/12 03:56:33;;;;;;;11.38;5.80;;;;;;;26.64;39.01;99484.97;4484236;32;33792;-68
2023/09/12 03:59:01;;;;;;;9.30;5.70;;;;;;;26.64;38.98;99484.16;4484137;32;33357;-69
2023/09/12 04:01:28;;;;;;;12.00;5.45;;;;;;;26.63;38.94;99480.59;4484294;32;33527;-68
2023/09/12 04:03:56;;;;;;;11.05;5.65;;;;;;;26.64;38.97;99484.16;4484216;32;33607;-69
2023/09/12 04:06:26;;;;;;;;;;;;;;;26.62;38.96;99476.19;4484622;32;34185;-68
2023/09/12 04:08:54;;;;;;;13.68;5.60;;;;;;;26.71;38.78;99474.66;4482926;32;34497;-70
2023/09/12 04:11:21;;;;;;;13.70;6.15;;;;;;;26.64;38.94;99482.25;4484208;32;33296;-69
2023/09/12 04:14:06;;;;;;;10.88;5.68;;;;;;;26.61;39.00;99477.28;4484502;32;34163;-69
2023/09/12 04:16:34;;;;;;;12.93;6.05;;;;;;;26.60;39.00;99478.38;4484075;32;34645;-69
2023/09/12 04:19:01;;;;;;;12.07;6.28;;;;;;;26.60;39.06;99478.38;4483538;32;33843;-69
2023/09/12 04:21:29;;;;;;;11.15;5.80;;;;;;;26.61;38.95;99479.19;4483696;32;34416;-69
2023/09/12 04:23:57;;;;;;;11.27;5.53;;;;;;;26.60;38.98;99483.00;4484300;32;34316;-69
2023/09/12 04:26:25;;;;;;;12.07;6.30;;;;;;;26.59;38.99;99482.19;4484047;32;34700;-69
2023/09/12 04:28:52;;;;;;;8.80;5.72;;;;;;;26.58;39.11;99476.94;4484181;32;34643;-70
2023/09/12 04:31:20;;;;;;;11.98;6.15;;;;;;;26.58;39.24;99485.16;4482975;32;33195;-68
2023/09/12 04:33:50;;;;;;;11.18;5.20;;;;;;;26.59;39.23;99482.19;4484197;32;34719;-68
2023/09/12 04:36:17;;;;;;;;;;;;;;;26.59;39.27;99487.66;4483454;32;33556;-68
2023/09/12 04:38:45;;;;;;;11.52;5.75;;;;;;;26.69;39.12;99489.69;4483884;32;34214;-70
2023/09/12 04:41:17;;;;;;;10.18;5.50;;;;;;;26.62;39.22;99497.25;4484050;32;33367;-69
2023/09/12 04:43:44;;;;;;;9.85;5.80;;;;;;;26.60;39.30;99488.47;4482790;32;32833;-69
2023/09/12 04:46:12;;;;;;;10.80;5.37;;;;;;;26.59;39.30;99493.13;4482573;32;33798;-69
2023/09/12 04:48:40;;;;;;;9.57;6.22;;;;;;;26.59;39.35;99487.66;4482571;32;33465;-69
2023/09/12 04:51:08;;;;;;;8.00;5.03;;;;;;;26.59;39.37;99497.78;4483998;32;33377;-69
2023/09/12 04:53:36;;;;;;;7.57;4.60;;;;;;;26.59;39.37;99501.34;4483887;32;33502;-69
2023/09/12 04:56:06;;;;;;;10.85;5.28;;;;;;;26.59;39.35;99500.53;4482754;32;34731;-69
2023/09/12 04:58:33;;;;;;;12.13;5.40;;;;;;;26.60;39.34;99504.91;4482644;32;33997;-69
2023/09/12 05:01:02;;;;;;;9.93;5.57;;;;;;;26.60;39.29;99507.63;4483615;32;33943;-68
2023/09/12 05:03:30;;;;;;;10.40;5.03;;;;;;;26.59;39.30;99506.00;4482895;32;34741;-69
2023/09/12 05:05:58;;;;;;;10.23;5.68;;;;;;;26.58;39.32;99507.03;4481515;32;33815;-71
2023/09/12 05:08:26;;;;;;;8.05;5.37;;;;;;;26.58;39.31;99509.78;4481947;32;33951;-71
2023/09/12 05:10:53;;;;;;;9.40;5.10;;;;;;;26.58;39.32;99512.53;4482239;32;33423;-69
2023/09/12 05:13:21;;;;;;;10.70;5.62;;;;;;;26.57;39.33;99508.97;4481975;32;34768;-69
2023/09/12 05:15:49;;;;;;;14.43;5.47;;;;;;;26.57;39.32;99511.69;4482753;32;33857;-70
2023/09/12 05:18:16;;;;;;;9.88;4.82;;;;;;;26.56;39.35;99507.31;4482250;32;33867;-68
2023/09/12 05:20:44;;;;;;;9.45;5.07;;;;;;;26.56;39.34;99504.56;4483810;32;33245;-69
2023/09/12 05:23:12;;;;;;;9.48;5.15;;;;;;;26.56;39.38;99510.06;4483556;32;34311;-70
2023/09/12 05:25:39;;;;;;;11.00;5.50;;;;;;;26.56;39.39;99512.78;4483221;32;33888;-69
2023/09/12 05:28:08;;;;;;;11.32;5.35;;;;;;;26.56;39.40;99512.78;4482862;32;34468;-69
2023/09/12 05:30:36;;;;;;;15.90;6.00;;;;;;;26.55;39.40;99516.59;4482575;32;33291;-69
2023/09/12 05:33:04;;;;;;;7.65;5.03;;;;;;;26.56;39.41;99520.16;4482594;32;34618;-69
2023/09/12 05:35:32;;;;;;;8.18;5.53;;;;;;;26.55;39.41;99522.09;4482599;32;33774;-70
2023/09/12 05:37:59;;;;;;;9.38;5.68;;;;;;;26.55;39.42;99516.59;4483287;32;33585;-69
2023/09/12 05:40:27;;;;;;;9.70;5.28;;;;;;;26.55;39.43;99527.56;4483310;32;34412;-70
2023/09/12 05:42:54;;;;;;;8.88;5.80;;;;;;;26.55;39.44;99524.00;4481739;32;34367;-70
2023/09/12 05:45:23;;;;;;;11.05;5.68;;;;;;;26.55;39.44;99533.03;4483037;32;34106;-69
2023/09/12 05:47:51;;;;;;;11.85;5.68;;;;;;;26.55;39.47;99535.75;4469150;32;33984;-68
2023/09/12 05:50:19;;;;;;;7.97;4.90;;;;;;;26.55;39.48;99529.47;4482370;32;34360;-68
2023/09/12 05:52:47;;;;;;;10.27;5.50;;;;;;;26.55;39.46;99533.03;4474941;32;33763;-69
2023/09/12 05:55:15;;;;;;;10.05;5.82;;;;;;;26.55;39.50;99534.94;4480942;32;33944;-68
2023/09/12 05:57:43;;;;;;;7.78;5.10;;;;;;;26.54;39.50;99533.28;4483052;32;34243;-70
2023/09/12 06:00:11;;;;;;;11.85;5.97;;;;;;;26.53;39.53;99537.91;4481227;32;33501;-70
2023/09/12 06:02:42;;;;;;;9.65;5.00;;;;;;;26.53;39.56;99537.91;4482110;32;33928;-70
2023/09/12 06:05:09;;;;;;;9.10;5.07;;;;;;;26.54;39.53;99534.13;4482980;32;34351;-69
2023/09/12 06:07:38;;;;;;;8.70;5.30;;;;;;;26.55;39.55;99532.22;4483024;32;34457;-70
2023/09/12 06:10:08;;;;;;;8.95;5.60;;;;;;;26.54;39.59;99534.13;4481577;32;33942;-69
2023/09/12 06:12:36;;;;;;;12.55;5.50;;;;;;;26.54;39.62;99538.75;4482852;32;33748;-71
2023/09/12 06:15:04;;;;;;;13.23;4.72;;;;;;;26.53;39.65;99543.37;4482833;32;33984;-69
2023/09/12 06:17:33;;;;;;;11.27;5.78;;;;;;;26.55;39.69;99545.88;4481404;32;33955;-69
2023/09/12 06:20:03;;;;;;;10.32;5.32;;;;;;;26.54;39.69;99539.59;4482788;32;34115;-69
2023/09/12 06:22:30;;;;;;;;;;;;;;;26.55;39.74;99545.88;4483340;32;33807;-68
2023/09/12 06:25:00;;;;;;;14.17;5.47;;;;;;;26.62;39.59;99544.59;4482761;32;33528;-69
2023/09/12 06:27:27;;;;;;;8.48;5.25;;;;;;;26.57;39.72;99552.75;4482685;32;34309;-70
2023/09/12 06:29:55;;;;;;;9.38;5.07;;;;;;;26.55;39.80;99552.19;4482656;32;33334;-70
2023/09/12 06:32:22;;;;;;;9.32;5.45;;;;;;;26.54;39.84;99549.72;4482523;32;33841;-68
2023/09/12 06:34:50;;;;;;;10.60;6.10;;;;;;;26.54;39.85;99553.28;4482836;32;33235;-70
2023/09/12 06:37:18;;;;;;;10.35;5.68;;;;;;;26.55;39.87;99551.34;4482411;32;33840;-70
2023/09/12 06:39:49;;;;;;;9.63;5.62;;;;;;;26.54;39.88;99549.72;4482250;32;34315;-69
2023/09/12 06:42:17;;;;;;;9.80;5.22;;;;;;;26.54;39.90;99550.53;4482424;32;34355;-69
2023/09/12 06:44:45;;;;;;;11.88;5.32;;;;;;;26.55;39.90;99554.91;4483136;32;34671;-69
2023/09/12 06:47:13;;;;;;;10.88;5.65;;;;;;;26.55;39.94;99552.19;4483982;32;34824;-69
2023/09/12 06:49:40;;;;;;;7.53;5.25;;;;;;;26.56;39.98;99550.28;4482317;32;33452;-68
2023/09/12 06:52:09;;;;;;;13.75;5.80;;;;;;;26.56;39.98;99553.00;4482217;32;32866;-68
2023/09/12 06:54:37;;;;;;;9.98;5.78;;;;;;;26.57;39.98;99557.38;4484967;32;33678;-68
2023/09/12 06:57:05;;;;;;;7.97;5.07;;;;;;;26.58;40.00;99550.84;4484737;32;34448;-67
2023/09/12 06:59:32;;;;;;;12.65;5.40;;;;;;;26.58;40.04;99545.34;4484870;32;33360;-68
2023/09/12 07:02:00;;;;;;;15.13;5.93;;;;;;;26.59;40.06;99549.78;4483615;32;34451;-68
2023/09/12 07:04:29;;;;;;;11.00;5.82;;;;;;;26.59;40.09;99549.78;4484778;32;34738;-68
2023/09/12 07:06:56;;;;;;;10.20;5.87;;;;;;;26.60;40.12;99551.44;4470615;32;33679;-68
2023/09/12 07:09:26;;;;;;;;;;;;;;;26.60;40.17;99552.25;4484969;32;33057;-68
2023/09/12 07:11:53;;;;;;;10.85;5.95;;;;;;;26.69;40.00;99550.72;4484831;32;33776;-68
2023/09/12 07:14:22;;;;;;;14.20;6.30;;;;;;;26.62;40.19;99563.75;4484562;32;34818;-68
2023/09/12 07:16:50;;;;;;;8.95;6.03;;;;;;;26.61;40.26;99567.56;4484588;32;33418;-68
2023/09/12 07:19:18;;;;;;;11.75;6.25;;;;;;;26.62;40.31;99568.41;4482800;31;33857;-66
2023/09/12 07:21:46;;;;;;;9.82;5.60;;;;;;;26.60;40.38;99565.94;4486428;31;33919;-69
2023/09/12 07:24:14;;;;;;;10.20;5.43;;;;;;;26.61;40.43;99561.28;4484704;32;34737;-68
2023/09/12 07:26:42;;;;;;;9.68;5.32;;;;;;;26.62;40.54;99563.75;4484441;32;34133;-68
2023/09/12 07:29:10;;;;;;;12.02;6.22;;;;;;;26.63;40.56;99564.59;4484448;32;33973;-68
2023/09/12 07:31:38;;;;;;;12.40;5.90;;;;;;;26.63;40.66;99565.44;4484643;32;33844;-69
2023/09/12 07:34:05;;;;;;;9.15;6.05;;;;;;;26.64;40.73;99567.09;4483651;32;34018;-67
2023/09/12 07:36:36;;;;;;;;;;;;;;;26.65;40.99;99566.00;4484915;32;33936;-67
2023/09/12 07:39:04;;;;;;;12.70;6.43;;;;;;;26.76;40.85;99563.38;4483533;32;33995;-67
2023/09/12 07:41:31;;;;;;;10.15;6.28;;;;;;;26.69;41.24;99558.13;4483264;32;34683;-68
2023/09/12 07:44:01;;;;;;;11.70;6.53;;;;;;;26.68;41.35;99562.75;4484353;32;33864;-68
2023/09/12 07:46:28;;;;;;;;;;;;;;;26.68;41.48;99570.97;4484878;32;33625;-68
2023/09/12 07:48:56;;;;;;;11.90;6.53;;;;;;;26.79;41.33;99563.72;4484530;32;34149;-68
2023/09/12 07:51:24;;;;;;;14.95;6.65;;;;;;;26.72;41.64;99557.63;4483019;32;35197;-68
2023/09/12 07:53:52;;;;;;;11.25;6.37;;;;;;;26.70;41.81;99557.84;4470151;32;35407;-68
2023/09/12 07:56:20;;;;;;;9.25;6.72;;;;;;;26.72;41.95;99571.31;4483711;32;33498;-68
2023/09/12 07:58:49;;;;;;;10.50;6.57;;;;;;;26.73;42.01;99575.69;4484322;32;34140;-68
2023/09/12 08:01:17;;;;;;;12.10;6.35;;;;;;;26.74;42.20;99557.34;4484387;32;33641;-68
2023/09/12 08:03:44;;;;;;;10.88;6.37;;;;;;;26.76;42.16;99557.91;4470442;32;33951;-68
2023/09/12 08:06:13;;;;;;;10.82;6.97;;;;;;;26.76;42.25;99566.13;4484411;32;34259;-68
2023/09/12 08:08:41;;;;;;;12.07;6.82;;;;;;;26.78;42.42;99562.06;4484323;32;33203;-68
2023/09/12 08:11:12;;;;;;;10.75;6.43;;;;;;;26.79;42.45;99554.66;4484217;32;34091;-68
2023/09/12 08:13:40;;;;;;;14.57;6.82;;;;;;;26.80;42.56;99559.06;4484416;32;34956;-68
2023/09/12 08:16:08;;;;;;;11.98;6.40;;;;;;;26.81;42.83;99558.78;4484140;32;34760;-68
2023/09/12 08:18:36;;;;;;;13.75;6.93;;;;;;;26.82;42.99;99565.13;4482816;32;33638;-68
2023/09/12 08:21:04;;;;;;;10.63;6.50;;;;;;;26.83;42.99;99556.66;4484189;32;33786;-68
2023/09/12 08:23:31;;;;;;;14.93;6.72;;;;;;;26.85;43.14;99561.84;4484251;32;34706;-68
2023/09/12 08:25:59;;;;;;;13.75;7.03;;;;;;;26.85;43.33;99556.38;4484116;32;34352;-68
2023/09/12 08:28:27;;;;;;;17.73;7.20;;;;;;;26.85;43.51;99557.22;4484168;32;34156;-68
2023/09/12 08:30:54;;;;;;;16.23;7.40;;;;;;;26.88;43.60;99562.19;4484286;32;34728;-68
2023/09/12 08:33:22;;;;;;;10.07;6.87;;;;;;;26.88;43.55;99561.34;4482994;32;33834;-68
2023/09/12 08:35:53;;;;;;;13.88;6.72;;;;;;;26.89;43.45;99561.09;4484200;32;33877;-67
2023/09/12 08:38:20;;;;;;;15.82;7.55;;;;;;;26.90;43.48;99560.00;4484300;32;34265;-68
2023/09/12 08:40:50;;;;;;;15.38;7.75;;;;;;;26.90;43.53;99567.37;4483869;32;33961;-67
2023/09/12 08:43:17;;;;;;;14.27;6.20;;;;;;;26.90;43.45;99557.25;4483378;32;34069;-68
2023/09/12 08:45:45;;;;;;;12.30;6.75;;;;;;;26.91;43.48;99561.69;4482952;32;33795;-68
2023/09/12 08:48:13;;;;;;;14.27;6.62;;;;;;;26.92;43.40;99562.50;4456938;32;33486;-67
2023/09/12 08:50:41;;;;;;;11.30;6.60;;;;;;;26.92;43.40;99557.03;4468457;32;34586;-67
2023/09/12 08:53:09;;;;;;;10.85;7.15;;;;;;;26.93;43.34;99564.16;4454390;32;33764;-67
2023/09/12 08:55:37;;;;;;;13.38;6.72;;;;;;;26.92;43.29;99565.25;4467082;32;34595;-67
2023/09/12 08:58:05;;;;;;;12.88;7.00;;;;;;;26.92;43.30;99566.06;4468472;32;33405;-68
2023/09/12 09:00:33;;;;;;;15.68;6.28;;;;;;;26.92;43.28;99567.97;4469309;31;34300;-68
2023/09/12 09:03:03;;;;;;;16.17;7.22;;;;;;;26.92;43.24;99562.50;4468995;31;33764;-69
2023/09/12 09:05:30;;;;;;;12.32;6.55;;;;;;;26.92;43.22;99566.06;4466763;32;34816;-68
2023/09/12 09:07:58;;;;;;;11.85;6.50;;;;;;;26.92;43.24;99559.75;4465382;32;34113;-68
2023/09/12 09:10:32;;;;;;;9.57;6.30;;;;;;;26.93;43.19;99570.44;4455532;31;33456;-70
2023/09/12 09:13:17;;;;;;;14.43;6.62;;;;;;;26.94;43.12;99563.06;4468339;31;34031;-70
2023/09/12 09:15:45;;;;;;;13.90;6.35;;;;;;;26.94;43.09;99561.16;4472025;31;33383;-69
2023/09/12 09:18:12;;;;;;;12.27;6.80;;;;;;;26.95;43.06;99561.97;4482677;32;33202;-68
2023/09/12 09:20:40;;;;;;;13.75;6.82;;;;;;;26.93;42.96;99556.75;4460901;32;32777;-68
2023/09/12 09:23:10;;;;;;;11.10;6.22;;;;;;;26.94;42.89;99552.09;4466244;31;34732;-70
2023/09/12 09:25:42;;;;;;;15.87;7.60;;;;;;;26.95;42.81;99553.75;4466320;32;33453;-69
2023/09/12 09:28:20;;;;;;;14.02;6.53;;;;;;;26.95;42.74;99551.87;4468104;31;33232;-68
2023/09/12 09:30:50;;;;;;;14.77;6.28;;;;;;;26.96;42.63;99553.53;4453972;32;33738;-68
2023/09/12 09:33:19;;;;;;;12.90;6.62;;;;;;;26.95;42.58;99557.34;4459519;32;33685;-70
2023/09/12 09:35:47;;;;;;;15.98;6.35;;;;;;;26.95;42.49;99554.62;4466244;32;33766;-70
2023/09/12 09:38:18;;;;;;;12.65;6.07;;;;;;;26.96;42.42;99560.91;4470372;31;33332;-70
2023/09/12 09:40:48;;;;;;;13.25;6.30;;;;;;;26.96;42.35;99558.19;4469048;32;33916;-68
2023/09/12 09:43:20;;;;;;;13.77;6.75;;;;;;;26.95;42.27;99557.34;4473355;32;34646;-69
2023/09/12 09:45:48;;;;;;;11.90;5.80;;;;;;;26.96;42.18;99556.25;4457377;32;33615;-69
2023/09/12 09:48:23;;;;;;;13.10;6.55;;;;;;;26.97;42.11;99554.34;4479739;31;33373;-69
2023/09/12 09:50:52;;;;;;;13.20;6.12;;;;;;;26.98;42.04;99549.69;4466274;32;33862;-70
2023/09/12 09:53:26;;;;;;;15.27;6.27;;;;;;;26.97;42.00;99554.34;4465812;32;33926;-70
2023/09/12 09:56:13;;;;;;;11.73;5.60;;;;;;;26.98;41.89;99553.25;4470923;32;34146;-70
2023/09/12 09:58:52;;;;;;;12.50;6.18;;;;;;;27.00;41.80;99553.00;4454988;32;33634;-69
2023/09/12 10:01:21;;;;;;;10.90;6.18;;;;;;;27.00;41.74;99547.50;4458035;32;33609;-68
2023/09/12 10:03:49;;;;;;;11.80;5.78;;;;;;;26.98;41.69;99547.78;4474459;32;35398;-70
2023/09/12 10:06:17;;;;;;;9.93;6.15;;;;;;;26.99;41.62;99551.34;4467548;32;33439;-69
2023/09/12 10:08:50;;;;;;;12.00;5.75;;;;;;;26.99;41.57;99551.34;4456849;32;34029;-70
2023/09/12 10:11:18;;;;;;;10.95;5.60;;;;;;;26.99;41.51;99546.69;4469781;32;33504;-70
2023/09/12 10:13:49;;;;;;;8.40;5.35;;;;;;;26.99;41.41;99543.94;4475471;32;34315;-69
2023/09/12 10:16:17;;;;;;;11.23;5.87;;;;;;;26.99;41.37;99541.22;4468893;32;33937;-69
2023/09/12 10:19:07;;;;;;;13.10;5.60;;;;;;;27.01;41.25;99543.72;4479939;32;33308;-69
2023/09/12 10:21:35;;;;;;;12.05;6.50;;;;;;;27.02;41.13;99542.63;4482174;32;33814;-70
2023/09/12 10:24:05;;;;;;;9.65;5.87;;;;;;;27.01;41.10;99540.97;4470350;31;34008;-70
2023/09/12 10:26:33;;;;;;;8.63;5.70;;;;;;;27.00;41.08;99542.91;4467490;32;33880;-69
2023/09/12 10:29:00;;;;;;;8.77;5.18;;;;;;;27.01;41.02;99536.31;4468213;32;33411;-70
2023/09/12 10:31:28;;;;;;;11.00;6.07;;;;;;;27.00;40.98;99531.94;4466034;32;34961;-70
2023/09/12 10:33:56;;;;;;;11.98;5.75;;;;;;;27.02;40.94;99531.66;4470365;32;33898;-70
2023/09/12 10:36:23;;;;;;;10.50;6.03;;;;;;;27.03;40.89;99531.41;4471180;31;33792;-68
2023/09/12 10:38:51;;;;;;;9.48;5.32;;;;;;;27.03;40.86;99525.09;4470743;32;33957;-69
2023/09/12 10:41:19;;;;;;;10.88;5.68;;;;;;;27.03;40.82;99525.09;4483638;32;33756;-70
2023/09/12 10:43:47;;;;;;;10.07;5.32;;;;;;;27.03;40.79;99527.84;4473676;32;32602;-70
2023/09/12 10:46:14;;;;;;;11.07;5.50;;;;;;;27.03;40.76;99525.94;4467325;32;34222;-70
2023/09/12 10:48:42;;;;;;;11.95;5.90;;;;;;;27.05;40.70;99525.69;4467808;32;34143;-69
2023/09/12 10:51:10;;;;;;;12.35;6.05;;;;;;;27.04;40.64;99516.62;4468581;31;33920;-69
2023/09/12 10:53:38;;;;;;;9.02;5.68;;;;;;;27.04;40.54;99513.87;4484899;32;33859;-69
2023/09/12 10:56:12;;;;;;;8.70;4.82;;;;;;;27.05;40.48;99521.03;4480991;32;33647;-70
2023/09/12 10:59:06;;;;;;;11.68;5.10;;;;;;;27.06;40.42;99519.13;4468651;32;33417;-70
2023/09/12 11:01:34;;;;;;;9.45;5.30;;;;;;;27.07;40.31;99510.66;4483432;31;35084;-70
2023/09/12 11:04:27;;;;;;;9.50;4.93;;;;;;;27.06;40.29;99519.94;4472391;31;34755;-70
2023/09/12 11:06:56;;;;;;;13.45;5.85;;;;;;;27.07;40.18;99516.13;4468748;31;34419;-70
2023/09/12 11:09:24;;;;;;;8.65;5.37;;;;;;;27.06;40.15;99510.91;4469039;32;34324;-69
2023/09/12 11:12:08;;;;;;;11.85;5.35;;;;;;;27.06;40.05;99509.00;4467343;32;33208;-69
2023/09/12 11:14:37;;;;;;;17.65;5.40;;;;;;;27.09;39.98;99505.78;4480191;31;33525;-69
2023/09/12 11:17:08;;;;;;;11.12;5.55;;;;;;;27.07;39.94;99496.94;4469899;32;34574;-69
2023/09/12 11:19:49;;;;;;;10.75;5.40;;;;;;;27.07;39.92;99496.94;4482000;31;33338;-68
2023/09/12 11:22:30;;;;;;;13.32;5.37;;;;;;;27.09;39.84;99497.56;4456306;31;33473;-68
2023/09/12 11:25:01;;;;;;;7.47;5.15;;;;;;;27.09;39.84;99488.50;4471240;32;34575;-70
2023/09/12 11:27:33;;;;;;;11.05;5.37;;;;;;;27.08;39.83;99493.16;4480072;32;33808;-70
2023/09/12 11:30:05;;;;;;;7.68;4.78;;;;;;;27.09;39.82;99491.25;4472032;31;34291;-70
2023/09/12 11:32:34;;;;;;;9.05;4.87;;;;;;;27.09;39.75;99489.34;4478851;32;35271;-69
2023/09/12 11:35:09;;;;;;;11.02;5.57;;;;;;;27.10;39.73;99491.00;4467636;32;33732;-69
2023/09/12 11:37:37;;;;;;;8.75;4.95;;;;;;;27.11;39.68;99489.91;4471589;31;33974;-70